Time;durP1;ratioP1;P1;durP2;ratioP2;P2;SDS_P1;SDS_P2;PMS_P1;PMS_P2;Temp;Humidity;BMP_temperature;BMP_pressure;BME280_temperature;BME280_humidity;BME280_pressure;Samples;Min_cycle;Max_cycle;Signal;HPM_P1;HPM_P2
2021/11/09 00:01:05;;;;;;;11.50;6.33;;;7.70;99.90;;;8.59;100.00;101091.16;5032836;28;20233;-60
2021/11/09 00:03:43;;;;;;;12.97;6.80;;;7.70;99.90;;;8.62;100.00;101098.81;5032768;28;20259;-59
2021/11/09 00:06:18;;;;;;;8.30;5.90;;;7.70;99.90;;;8.61;100.00;101105.22;5033027;28;20277;-59
2021/11/09 00:08:53;;;;;;;10.00;6.43;;;7.70;99.90;;;8.57;100.00;101105.78;5032918;28;20228;-60
2021/11/09 00:11:23;;;;;;;11.37;6.00;;;7.70;99.90;;;8.57;100.00;101103.91;5032710;28;20190;-60
2021/11/09 00:13:52;;;;;;;11.77;6.33;;;7.70;99.90;;;8.66;100.00;101107.34;5032612;28;20730;-59
2021/11/09 00:16:20;;;;;;;10.80;6.47;;;7.70;99.90;;;8.41;100.00;101106.78;5032880;28;20628;-58
2021/11/09 00:18:50;;;;;;;11.63;7.00;;;7.70;99.90;;;8.32;100.00;101112.41;5032574;28;20233;-60
2021/11/09 00:21:20;;;;;;;15.97;7.80;;;7.60;99.90;;;8.17;100.00;101108.78;5032598;28;20190;-60
2021/11/09 00:23:48;;;;;;;13.63;8.23;;;7.60;99.90;;;8.06;100.00;101103.88;5032818;28;20186;-60
2021/11/09 00:26:18;;;;;;;13.23;9.00;;;7.50;99.90;;;8.08;100.00;101107.22;5032419;28;20732;-59
2021/11/09 00:28:46;;;;;;;11.97;8.13;;;7.40;99.90;;;7.96;100.00;101108.66;5032472;28;20222;-59
2021/11/09 00:31:15;;;;;;;12.00;7.97;;;7.40;99.90;;;7.91;100.00;101108.34;5032659;28;20292;-59
2021/11/09 00:33:43;;;;;;;14.27;8.60;;;7.40;99.90;;;7.91;100.00;101108.34;5032194;28;20633;-60
2021/11/09 00:36:12;;;;;;;14.97;10.10;;;7.30;99.90;;;7.91;100.00;101113.72;5032335;28;20650;-59
2021/11/09 00:38:41;;;;;;;16.33;14.57;;;7.30;99.90;;;7.90;100.00;101122.78;5032495;28;20206;-60
2021/11/09 00:41:09;;;;;;;20.67;15.30;;;7.30;99.90;;;7.84;100.00;101124.31;5032428;28;20235;-59
2021/11/09 00:43:37;;;;;;;22.97;20.57;;;7.30;99.90;;;7.84;100.00;101124.31;5035511;28;20532;-59
2021/11/09 00:46:05;;;;;;;20.67;17.73;;;7.30;99.90;;;7.87;100.00;101117.75;5036114;28;20229;-59
2021/11/09 00:48:33;;;;;;;19.80;15.80;;;7.20;99.90;;;7.89;100.00;101121.09;5036033;28;20210;-58
2021/11/09 00:51:01;;;;;;;15.57;13.73;;;7.30;99.90;;;8.01;100.00;101117.00;5036028;28;20668;-60
2021/11/09 00:53:31;;;;;;;18.57;13.53;;;7.30;99.90;;;8.04;100.00;101122.84;5036375;28;20198;-60
2021/11/09 00:55:59;;;;;;;16.00;12.63;;;7.30;99.90;;;8.05;100.00;101123.69;5036005;28;20293;-60
2021/11/09 00:58:27;;;;;;;14.83;10.47;;;7.30;99.90;;;8.10;100.00;101115.91;5035632;28;20269;-61
2021/11/09 01:00:55;;;;;;;17.03;8.53;;;7.40;99.90;;;8.12;100.00;101124.59;5036279;28;20201;-59
2021/11/09 01:03:23;;;;;;;12.33;7.40;;;7.50;99.90;;;8.13;100.00;101127.13;5036047;28;20202;-62
2021/11/09 01:05:51;;;;;;;11.20;7.40;;;7.40;99.90;;;8.14;100.00;101125.25;5035851;28;20292;-61
2021/11/09 01:08:19;;;;;;;9.80;7.10;;;7.50;99.90;;;8.15;100.00;101127.75;5035709;28;20685;-59
2021/11/09 01:10:53;;;;;;;10.17;7.37;;;7.50;99.90;;;8.20;100.00;101132.59;5035894;28;20585;-59
2021/11/09 01:13:24;;;;;;;10.80;7.40;;;7.60;99.90;;;8.32;100.00;101142.75;5035572;28;20551;-60
2021/11/09 01:15:56;;;;;;;11.13;7.50;;;7.60;99.90;;;8.23;100.00;101135.81;5035997;28;20183;-60
2021/11/09 01:18:28;;;;;;;13.80;7.40;;;7.60;99.90;;;8.20;100.00;101136.09;5035790;28;20198;-60
2021/11/09 01:20:58;;;;;;;11.97;7.50;;;7.50;99.90;;;8.23;100.00;101140.28;5035793;28;20273;-61
2021/11/09 01:23:28;;;;;;;10.70;7.87;;;7.50;99.90;;;8.26;100.00;101139.97;5035811;28;20244;-61
2021/11/09 01:25:58;;;;;;;13.67;9.53;;;7.60;99.90;;;8.20;100.00;101137.97;5035481;28;20208;-59
2021/11/09 01:28:27;;;;;;;14.13;10.57;;;7.60;99.90;;;8.21;100.00;101135.09;5035266;28;20578;-59
2021/11/09 01:30:55;;;;;;;13.40;12.00;;;7.50;99.90;;;8.25;100.00;101139.13;5035496;28;20412;-60
2021/11/09 01:33:23;;;;;;;12.70;11.37;;;7.60;99.90;;;8.22;100.00;101142.13;5035440;28;20209;-60
2021/11/09 01:35:53;;;;;;;15.50;12.63;;;7.50;99.90;;;8.19;100.00;101147.03;5035734;28;20202;-60
2021/11/09 01:38:21;;;;;;;15.47;12.97;;;7.50;99.90;;;8.20;100.00;101143.34;5036082;28;20202;-60
2021/11/09 01:40:49;;;;;;;13.93;12.43;;;7.50;99.90;;;8.15;100.00;101138.50;5035166;28;20568;-59
2021/11/09 01:43:21;;;;;;;14.07;9.47;;;7.50;99.90;;;8.09;100.00;101143.75;5035364;28;20209;-59
2021/11/09 01:45:50;;;;;;;10.20;8.03;;;7.50;99.90;;;8.10;100.00;101145.44;5035106;28;20544;-59
2021/11/09 01:48:19;;;;;;;13.43;8.77;;;7.40;99.90;;;8.09;100.00;101149.13;5035074;28;20202;-60
2021/11/09 01:50:54;;;;;;;12.33;8.60;;;7.40;99.90;;;8.11;100.00;101137.22;5035279;28;20218;-60
2021/11/09 01:53:23;;;;;;;10.50;7.30;;;7.40;99.90;;;8.10;100.00;101146.25;5034741;28;20273;-59
2021/11/09 01:55:52;;;;;;;12.50;8.40;;;7.40;99.90;;;8.16;100.00;101131.28;5034699;28;20202;-60
2021/11/09 01:58:22;;;;;;;13.30;7.47;;;7.40;99.90;;;8.14;100.00;101139.53;5034524;28;20234;-61
2021/11/09 02:00:55;;;;;;;11.47;7.87;;;7.50;99.90;;;8.14;100.00;101141.38;5034952;28;20682;-59
2021/11/09 02:03:25;;;;;;;10.90;6.87;;;7.50;99.90;;;8.08;100.00;101137.56;5034675;28;20649;-61
2021/11/09 02:05:54;;;;;;;11.77;7.33;;;7.40;99.90;;;8.18;100.00;101146.22;5034932;28;20213;-61
2021/11/09 02:08:24;;;;;;;14.47;9.30;;;7.50;99.90;;;8.15;100.00;101143.06;5034836;28;20240;-59
2021/11/09 02:10:53;;;;;;;12.73;8.10;;;7.50;99.90;;;8.14;100.00;101134.16;5034325;28;20226;-59
2021/11/09 02:13:25;;;;;;;11.20;8.07;;;7.50;99.90;;;8.12;100.00;101138.88;5035488;28;20382;-58
2021/11/09 02:15:54;;;;;;;10.80;7.77;;;7.50;99.90;;;8.16;100.00;101153.59;5034794;28;20189;-59
2021/11/09 02:18:23;;;;;;;9.53;7.17;;;7.50;99.90;;;8.16;100.00;101144.72;5034377;28;20662;-59
2021/11/09 02:20:57;;;;;;;13.77;9.10;;;7.50;99.90;;;8.13;100.00;101142.38;5034547;28;20205;-59
2021/11/09 02:23:26;;;;;;;11.80;8.43;;;7.50;99.90;;;8.12;100.00;101143.38;5034424;28;20518;-58
2021/11/09 02:25:55;;;;;;;16.67;10.60;;;7.50;99.90;;;8.17;100.00;101143.69;5034502;28;20281;-60
2021/11/09 02:28:24;;;;;;;12.73;10.47;;;7.50;99.90;;;8.16;100.00;101144.72;5034094;28;20593;-59
2021/11/09 02:30:53;;;;;;;14.83;10.57;;;7.50;99.90;;;8.18;100.00;101148.06;5034362;28;20254;-60
2021/11/09 02:33:21;;;;;;;13.27;9.97;;;7.50;99.90;;;8.12;100.00;101144.22;5034324;28;20256;-59
2021/11/09 02:35:50;;;;;;;11.03;9.33;;;7.50;99.90;;;8.12;100.00;101143.38;5034342;28;20201;-60
2021/11/09 02:38:20;;;;;;;11.90;8.60;;;7.50;99.90;;;8.22;100.00;101144.81;5034254;28;20202;-60
2021/11/09 02:40:48;;;;;;;12.43;8.97;;;7.50;99.90;;;8.20;100.00;101149.53;5034335;28;20222;-60
2021/11/09 02:43:19;;;;;;;10.57;8.30;;;7.50;99.90;;;8.17;100.00;101138.31;5034179;28;20233;-60
2021/11/09 02:46:05;;;;;;;13.47;7.87;;;7.50;99.90;;;8.19;100.00;101149.72;5033999;28;20633;-59
2021/11/09 02:48:37;;;;;;;12.67;8.17;;;7.50;99.90;;;8.24;100.00;101147.34;5033847;28;20665;-60
2021/11/09 02:51:09;;;;;;;14.03;8.70;;;7.50;99.90;;;8.21;100.00;101150.38;5034041;28;20202;-60
2021/11/09 02:53:43;;;;;;;10.13;7.03;;;7.50;99.90;;;8.20;100.00;101146.84;5034105;28;20187;-59
2021/11/09 02:56:16;;;;;;;11.87;7.13;;;7.50;99.90;;;8.17;100.00;101152.56;5033636;28;20285;-58
2021/11/09 02:58:50;;;;;;;8.63;6.10;;;7.50;99.90;;;8.13;100.00;101147.75;5033845;28;20186;-60
2021/11/09 03:01:25;;;;;;;11.50;5.83;;;7.50;99.90;;;8.11;100.00;101142.56;5033923;28;20280;-59
2021/11/09 03:04:00;;;;;;;9.33;5.53;;;7.50;99.90;;;8.32;100.00;101144.63;5033696;28;20240;-59
2021/11/09 03:06:33;;;;;;;10.63;5.93;;;7.50;99.90;;;8.30;100.00;101149.34;5032829;28;20190;-58
2021/11/09 03:09:08;;;;;;;9.87;6.03;;;7.50;99.90;;;8.33;100.00;101155.19;5033776;28;20273;-59
2021/11/09 03:11:43;;;;;;;8.73;5.77;;;7.60;99.90;;;8.25;100.00;101155.22;5033229;28;20301;-59
2021/11/09 03:14:11;;;;;;;9.87;6.20;;;7.50;99.90;;;8.24;100.00;101166.13;5033620;28;20192;-58
2021/11/09 03:16:43;;;;;;;15.00;6.20;;;7.50;99.90;;;8.27;100.00;101163.13;5033705;28;20285;-60
2021/11/09 03:19:23;;;;;;;14.70;6.13;;;7.60;99.90;;;8.36;100.00;101162.88;5033471;28;20221;-60
2021/11/09 03:44:20;;;;;;;12.90;6.30;;;7.70;99.90;;;8.65;100.00;101180.91;5033280;28;20277;-60
2021/11/09 03:46:57;;;;;;;10.47;5.50;;;7.70;99.90;;;8.49;100.00;101178.34;5032895;28;20618;-60
2021/11/09 03:49:29;;;;;;;10.80;5.40;;;7.70;99.90;;;8.59;100.00;101182.44;5033118;28;20188;-60
2021/11/09 03:52:01;;;;;;;8.43;5.17;;;7.80;99.90;;;8.48;100.00;101182.06;5033109;28;20234;-60
2021/11/09 03:54:30;;;;;;;9.13;5.77;;;7.70;99.90;;;8.49;100.00;101191.78;5033126;28;20186;-60
2021/11/09 03:57:06;;;;;;;8.70;5.27;;;7.70;99.90;;;8.50;100.00;101193.47;5032608;28;20665;-59
2021/11/09 03:59:44;;;;;;;11.30;6.03;;;7.70;99.90;;;8.54;100.00;101197.47;5033104;28;20182;-59
2021/11/09 04:02:20;;;;;;;9.40;5.73;;;7.70;99.90;;;8.34;100.00;101199.78;5032996;28;20196;-60
2021/11/09 04:04:50;;;;;;;12.87;6.63;;;7.70;99.90;;;8.42;100.00;101199.72;5033079;28;20204;-59
2021/11/09 04:07:23;;;;;;;10.13;7.40;;;7.70;99.90;;;8.32;100.00;101203.69;5032946;28;20194;-61
2021/11/09 04:10:00;;;;;;;11.80;6.10;;;7.60;99.90;;;8.31;100.00;101212.72;5032966;28;20290;-59
2021/11/09 04:12:47;;;;;;;10.40;6.40;;;7.60;99.90;;;8.41;100.00;101208.78;5032671;28;20244;-60
2021/11/09 04:15:27;;;;;;;11.20;6.00;;;7.60;99.90;;;8.59;100.00;101206.63;5032492;28;20232;-60
2021/11/09 04:18:09;;;;;;;9.30;6.07;;;7.60;99.90;;;8.49;100.00;101208.72;5031925;28;20645;-59
2021/11/09 04:20:47;;;;;;;12.20;5.93;;;7.60;99.90;;;8.66;100.00;101208.59;5032556;28;20278;-59
2021/11/09 04:32:17;;;;;;;13.10;5.77;;;7.70;99.90;;;8.49;100.00;101222.16;5110512;27;21015;-60
2021/11/09 05:03:04;;;;;;;10.77;5.60;;;7.60;99.90;;;8.32;100.00;101238.56;5110213;28;20203;-59
2021/11/09 05:08:28;;;;;;;12.47;5.83;;;7.50;99.90;;;8.21;100.00;101239.78;5110160;28;20220;-59
2021/11/09 05:10:58;;;;;;;12.83;6.83;;;7.60;99.90;;;8.25;100.00;101249.16;5110315;28;20268;-58
2021/11/09 05:13:27;;;;;;;13.17;6.40;;;7.50;99.90;;;8.19;100.00;101249.84;5110049;28;20187;-60
2021/11/09 05:15:58;;;;;;;12.87;6.67;;;7.50;99.90;;;8.27;100.00;101254.38;5110145;28;20596;-61
2021/11/09 05:18:26;;;;;;;10.27;6.13;;;7.50;99.90;;;8.23;100.00;101253.91;5109993;28;20229;-60
2021/11/09 05:20:55;;;;;;;10.67;6.30;;;7.50;99.90;;;8.24;100.00;101252.88;5110013;28;20303;-58
2021/11/09 05:23:23;;;;;;;11.47;6.37;;;7.50;99.90;;;8.25;100.00;101254.53;5109847;28;20251;-59
2021/11/09 05:25:52;;;;;;;12.87;6.90;;;7.50;99.90;;;8.37;100.00;101268.41;5109770;28;20231;-59
2021/11/09 05:28:20;;;;;;;12.33;6.47;;;7.50;99.90;;;8.24;100.00;101265.44;5109280;28;20290;-60
2021/11/09 05:30:50;;;;;;;11.67;6.47;;;7.50;99.90;;;8.47;100.00;101260.94;5109634;28;20309;-60
2021/11/09 05:33:22;;;;;;;13.13;6.73;;;7.50;99.90;;;8.41;100.00;101270.53;5109646;28;20199;-60
2021/11/09 05:35:51;;;;;;;10.70;5.97;;;7.50;99.90;;;8.37;100.00;101266.53;5109893;28;20320;-59
2021/11/09 05:38:26;;;;;;;14.57;6.27;;;7.50;99.90;;;8.30;100.00;101275.50;5109324;28;20659;-60
2021/11/09 05:40:57;;;;;;;10.23;5.93;;;7.60;99.90;;;8.29;100.00;101266.59;5109667;28;20179;-59
2021/11/09 05:43:25;;;;;;;10.63;6.80;;;7.50;99.90;;;8.54;100.00;101273.47;5109352;28;20210;-60
2021/11/09 05:45:53;;;;;;;12.63;6.87;;;7.50;99.90;;;8.38;100.00;101275.44;5109589;28;20738;-59
2021/11/09 05:48:22;;;;;;;14.07;7.23;;;7.50;99.90;;;8.30;100.00;101281.69;5113902;28;20196;-60
2021/11/09 05:50:50;;;;;;;11.67;6.23;;;7.50;99.90;;;8.20;100.00;101289.09;5109337;28;20298;-59
2021/11/09 05:53:19;;;;;;;12.87;7.07;;;7.50;99.90;;;8.45;100.00;101295.19;5104247;28;20227;-61
2021/11/09 05:55:47;;;;;;;12.70;6.47;;;7.50;99.90;;;8.33;100.00;101293.94;5095817;28;20200;-60
2021/11/09 05:58:15;;;;;;;13.73;7.20;;;7.60;99.90;;;8.25;100.00;101304.72;5095399;28;20204;-58
2021/11/09 06:00:43;;;;;;;13.20;7.40;;;7.50;99.90;;;8.56;100.00;101298.28;5095346;28;20643;-59
2021/11/09 06:03:11;;;;;;;12.60;6.70;;;7.60;99.90;;;8.79;100.00;101302.84;5095376;28;20251;-59
2021/11/09 06:05:40;;;;;;;10.27;6.50;;;7.60;99.90;;;8.77;100.00;101308.41;5095577;28;20206;-59
2021/11/09 06:08:08;;;;;;;9.67;6.30;;;7.70;99.90;;;8.45;100.00;101305.94;5095599;28;20269;-59
2021/11/09 06:10:36;;;;;;;12.13;6.93;;;7.70;99.90;;;8.41;100.00;101318.88;5095016;28;20662;-55
2021/11/09 06:13:04;;;;;;;10.77;6.53;;;7.60;99.90;;;8.31;100.00;101320.09;5094887;28;20203;-59
2021/11/09 06:15:32;;;;;;;10.50;6.50;;;7.60;99.90;;;8.28;100.00;101318.63;5095103;28;20199;-59
2021/11/09 06:18:00;;;;;;;12.90;6.87;;;7.60;99.90;;;8.47;100.00;101328.06;5095010;28;20208;-59
2021/11/09 06:20:28;;;;;;;12.20;6.90;;;7.60;99.90;;;8.51;100.00;101326.69;5094944;28;20204;-60
2021/11/09 06:23:01;;;;;;;12.83;7.33;;;7.60;99.90;;;8.35;100.00;101329.50;5095533;28;20274;-59
2021/11/09 06:25:29;;;;;;;15.17;7.20;;;7.60;99.90;;;8.37;100.00;101339.03;5094770;28;20787;-59
2021/11/09 06:27:57;;;;;;;9.03;6.03;;;7.60;99.90;;;8.50;100.00;101338.47;5094406;28;20239;-60
2021/11/09 06:30:25;;;;;;;14.20;7.60;;;7.60;99.90;;;8.36;100.00;101352.63;5094852;28;20278;-60
2021/11/09 06:32:53;;;;;;;13.67;7.07;;;7.60;99.90;;;8.38;100.00;101358.66;5094672;28;20286;-59
2021/11/09 06:35:21;;;;;;;13.07;7.70;;;7.60;99.90;;;8.34;100.00;101373.44;5094521;28;20576;-60
2021/11/09 06:37:49;;;;;;;15.77;7.23;;;7.60;99.90;;;8.29;100.00;101370.44;5094856;28;20287;-60
2021/11/09 06:40:19;;;;;;;9.80;7.47;;;7.60;99.90;;;8.24;100.00;101365.59;5094896;28;20200;-59
2021/11/09 06:42:48;;;;;;;14.47;7.70;;;7.50;99.90;;;8.36;100.00;101371.41;5094171;28;20322;-60
2021/11/09 06:45:16;;;;;;;13.23;7.37;;;7.60;99.90;;;8.37;100.00;101370.44;5094641;28;20231;-59
2021/11/09 06:47:45;;;;;;;13.63;7.70;;;7.60;99.90;;;8.33;100.00;101378.00;5094668;28;20611;-60
2021/11/09 06:50:13;;;;;;;12.93;6.90;;;7.60;99.90;;;8.46;100.00;101385.47;5094597;28;20306;-60
2021/11/09 06:52:41;;;;;;;15.00;6.57;;;7.60;99.90;;;8.40;100.00;101388.88;5094319;28;20246;-61
2021/11/09 06:55:10;;;;;;;14.40;8.23;;;7.70;99.90;;;8.44;100.00;101390.16;5094113;28;20290;-58
2021/11/09 06:57:45;;;;;;;17.27;7.77;;;7.60;99.90;;;8.60;100.00;101395.47;5093909;28;20223;-57
2021/11/09 07:00:17;;;;;;;14.63;7.13;;;7.70;99.90;;;8.51;100.00;101397.34;5094144;28;20283;-58
2021/11/09 07:02:46;;;;;;;13.93;7.80;;;7.70;99.90;;;8.62;100.00;101402.31;5093928;28;20204;-57
2021/11/09 07:05:15;;;;;;;13.10;7.67;;;7.80;99.90;;;8.68;100.00;101398.09;5093221;28;20549;-57
2021/11/09 07:07:43;;;;;;;10.70;6.37;;;7.80;99.90;;;8.64;100.00;101404.84;5093907;28;20203;-59
2021/11/09 07:10:13;;;;;;;10.87;7.13;;;7.80;99.90;;;8.85;100.00;101410.41;5094157;28;20804;-58
2021/11/09 07:12:43;;;;;;;10.90;7.13;;;7.90;99.90;;;8.72;100.00;101414.69;5093713;28;20598;-59
2021/11/09 07:15:13;;;;;;;14.47;7.37;;;7.90;99.90;;;8.93;100.00;101421.09;5093669;28;20573;-58
2021/11/09 07:17:42;;;;;;;15.53;7.10;;;7.90;99.90;;;8.95;100.00;101416.41;5093867;28;20295;-61
2021/11/09 07:20:13;;;;;;;20.10;7.97;;;8.00;99.90;;;8.98;100.00;101421.41;5093813;28;20287;-57
2021/11/09 07:22:42;;;;;;;12.33;7.20;;;8.00;99.90;;;9.06;100.00;101425.91;5093773;28;20239;-58
2021/11/09 07:25:12;;;;;;;12.43;7.70;;;8.10;99.90;;;8.96;100.00;101420.78;5093435;28;20249;-59
2021/11/09 07:27:42;;;;;;;11.50;7.40;;;8.10;99.90;;;8.97;100.00;101435.03;5093381;28;20647;-58
2021/11/09 07:30:13;;;;;;;13.77;7.80;;;8.10;99.90;;;9.17;100.00;101429.00;5093835;28;20268;-58
2021/11/09 07:32:44;;;;;;;13.27;7.17;;;8.20;99.90;;;9.19;100.00;101435.06;5093243;28;20639;-57
2021/11/09 07:35:15;;;;;;;12.67;7.30;;;8.20;99.90;;;9.21;100.00;101435.72;5093506;28;20292;-59
2021/11/09 07:37:43;;;;;;;11.27;6.73;;;8.30;99.90;;;9.27;100.00;101434.13;5093332;28;20180;-59
2021/11/09 07:40:12;;;;;;;11.97;7.53;;;8.40;99.90;;;9.28;100.00;101439.38;5093456;28;20266;-58
2021/11/09 07:42:47;;;;;;;13.33;6.73;;;8.40;99.90;;;9.55;100.00;101441.50;5092845;28;20251;-58
2021/11/09 07:45:18;;;;;;;11.50;7.40;;;8.50;99.90;;;9.44;100.00;101443.75;5093260;28;20191;-58
2021/11/09 07:47:47;;;;;;;12.07;6.30;;;8.50;99.90;;;9.35;100.00;101444.84;5093337;28;20228;-57
2021/11/09 07:50:16;;;;;;;13.47;6.93;;;8.50;99.90;;;9.47;100.00;101452.28;5093363;28;20258;-59
2021/11/09 07:52:45;;;;;;;9.33;6.80;;;8.60;99.90;;;9.47;100.00;101449.59;5093070;28;20325;-58
2021/11/09 07:55:17;;;;;;;13.13;6.80;;;8.60;99.90;;;9.54;100.00;101457.78;5093407;28;20228;-59
2021/11/09 07:57:49;;;;;;;11.13;6.30;;;8.60;99.90;;;9.55;100.00;101448.72;5093208;28;20769;-58
2021/11/09 08:00:22;;;;;;;13.50;7.20;;;8.60;99.90;;;9.78;100.00;101461.13;5093126;28;20203;-56
2021/11/09 08:03:01;;;;;;;13.13;7.03;;;8.60;99.90;;;9.94;100.00;101448.50;5092794;28;20224;-59
2021/11/09 08:05:35;;;;;;;11.03;6.73;;;8.70;99.90;;;9.84;100.00;101457.69;5093075;28;20671;-59
2021/11/09 08:08:07;;;;;;;9.50;6.00;;;8.80;99.90;;;9.82;100.00;101459.75;5093222;28;20212;-58
2021/11/09 08:10:35;;;;;;;10.70;6.53;;;8.90;99.90;;;9.89;100.00;101460.66;5093274;28;20704;-59
2021/11/09 08:13:05;;;;;;;14.70;7.43;;;9.00;99.90;;;10.00;100.00;101459.38;5092944;28;20299;-58
2021/11/09 08:15:34;;;;;;;10.33;6.33;;;9.00;99.90;;;10.06;100.00;101457.81;5093108;28;20291;-59
2021/11/09 08:18:03;;;;;;;15.60;7.07;;;9.00;99.90;;;9.98;100.00;101460.59;5092252;28;20740;-59
2021/11/09 08:20:51;;;;;;;14.27;7.07;;;9.10;99.90;;;10.12;100.00;101463.31;5092682;28;20204;-58
2021/11/09 08:23:19;;;;;;;11.47;6.83;;;9.10;99.90;;;10.04;100.00;101462.53;5092884;28;20315;-58
2021/11/09 08:25:47;;;;;;;13.37;7.07;;;9.20;99.90;;;10.12;100.00;101462.47;5092834;28;20239;-58
2021/11/09 08:28:17;;;;;;;14.30;6.83;;;9.20;99.90;;;10.12;100.00;101454.41;5091124;28;20500;-58
2021/11/09 08:30:48;;;;;;;10.53;6.77;;;9.20;99.90;;;10.44;100.00;101457.56;5091553;28;20272;-58
2021/11/09 08:33:17;;;;;;;10.07;6.23;;;9.20;99.90;;;10.23;100.00;101459.34;5091881;28;20180;-58
2021/11/09 08:35:45;;;;;;;9.00;5.87;;;9.30;99.90;;;10.15;100.00;101456.75;5091569;28;20200;-56
2021/11/09 08:38:15;;;;;;;11.40;7.40;;;9.30;99.90;;;10.14;100.00;101463.97;5091341;28;20717;-57
2021/11/09 08:40:45;;;;;;;12.90;6.63;;;9.40;99.90;;;10.48;100.00;101466.13;5091798;28;20188;-58
2021/11/09 08:43:17;;;;;;;14.33;6.83;;;9.40;99.90;;;10.44;100.00;101460.28;5091071;28;20818;-57
2021/11/09 08:45:53;;;;;;;12.17;6.43;;;9.40;99.90;;;10.23;100.00;101465.56;5091631;28;20211;-58
2021/11/09 08:48:23;;;;;;;16.27;7.57;;;9.40;99.90;;;10.18;100.00;101469.84;5089588;28;20286;-57
2021/11/09 08:50:54;;;;;;;18.37;7.47;;;9.40;99.90;;;10.12;100.00;101459.78;5091564;28;20214;-56
2021/11/09 08:53:27;;;;;;;14.17;6.73;;;9.40;99.90;;;10.36;100.00;101468.44;5091802;28;20192;-59
2021/11/09 09:04:25;;;;;;;11.30;6.90;;;9.80;99.90;;;10.45;100.00;101479.97;5090546;28;20320;-59
2021/11/09 09:06:59;;;;;;;11.73;6.80;;;9.70;99.90;;;10.85;100.00;101479.44;5091448;28;20192;-59
2021/11/09 09:09:27;;;;;;;11.23;5.73;;;9.90;99.90;;;11.18;100.00;101480.66;5090933;28;20271;-58
2021/11/09 09:11:56;;;;;;;16.23;6.70;;;10.20;99.90;;;11.23;100.00;101480.91;5091325;28;20208;-58
2021/11/09 09:14:24;;;;;;;10.80;6.43;;;10.30;99.90;;;11.26;100.00;101474.31;5091282;28;20292;-58
2021/11/09 09:16:56;;;;;;;12.17;6.47;;;10.30;99.90;;;11.29;100.00;101474.78;5091555;28;20636;-59
2021/11/09 09:19:28;;;;;;;12.57;6.53;;;10.40;99.90;;;11.55;100.00;101475.00;5091113;28;20180;-56
2021/11/09 09:22:04;;;;;;;13.37;6.23;;;10.60;99.90;;;11.94;100.00;101478.09;5091285;28;20196;-58
2021/11/09 09:24:42;;;;;;;10.80;5.93;;;10.90;99.90;;;12.06;100.00;101463.00;5090682;28;20291;-59
2021/11/09 09:27:20;;;;;;;12.07;6.87;;;11.00;99.90;;;11.92;100.00;101473.94;5091133;28;20216;-57
2021/11/09 09:30:04;;;;;;;11.13;6.17;;;11.00;99.90;;;11.86;100.00;101475.53;5094349;28;20187;-57
2021/11/09 09:32:47;;;;;;;11.50;6.17;;;11.00;99.90;;;11.73;100.00;101469.19;5094619;28;20279;-56
2021/11/09 09:52:21;;;;;;;11.37;6.23;;;10.60;99.90;;;11.56;100.00;101492.91;5094586;28;20651;-59
2021/11/09 09:55:14;;;;;;;14.37;7.47;;;10.70;99.90;;;11.89;100.00;101490.53;5094774;28;20192;-55
2021/11/09 09:57:43;;;;;;;10.60;7.37;;;10.80;99.90;;;11.79;100.00;101488.16;5074498;28;20382;-60
2021/11/09 10:00:13;;;;;;;12.27;7.03;;;10.90;99.90;;;11.86;100.00;101489.03;5073718;28;20231;-59
2021/11/09 10:02:52;;;;;;;13.03;7.50;;;10.90;99.90;;;11.93;100.00;101481.00;5074727;28;20237;-56
2021/11/09 10:05:24;;;;;;;11.80;7.07;;;11.00;99.90;;;11.94;100.00;101482.69;5074959;28;20251;-57
2021/11/09 10:07:56;;;;;;;12.07;7.17;;;11.00;99.90;;;11.96;100.00;101486.84;5074263;28;20188;-56
2021/11/09 10:10:27;;;;;;;13.20;7.27;;;11.10;99.90;;;11.98;100.00;101476.69;5074208;28;20220;-56
2021/11/09 10:12:59;;;;;;;10.97;7.43;;;11.10;99.90;;;12.12;100.00;101473.06;5074228;28;20255;-57
2021/11/09 10:15:31;;;;;;;11.00;7.43;;;11.20;99.90;;;12.10;100.00;101469.72;5072985;28;20672;-56
2021/11/09 10:18:04;;;;;;;9.30;7.03;;;11.20;99.90;;;12.20;100.00;101478.28;5073631;28;20189;-58
2021/11/09 10:20:37;;;;;;;9.63;6.70;;;11.30;99.90;;;12.21;100.00;101469.13;5073684;28;20221;-58
2021/11/09 10:23:13;;;;;;;11.17;7.27;;;11.30;99.90;;;12.27;100.00;101476.47;5074086;28;20189;-57
2021/11/09 10:25:42;;;;;;;13.50;7.83;;;11.30;99.90;;;12.29;100.00;101476.28;5072864;28;20201;-57
2021/11/09 10:28:19;;;;;;;23.97;8.43;;;11.40;99.90;;;12.66;100.00;101467.75;5072982;28;20189;-58
2021/11/09 10:30:55;;;;;;;13.07;7.27;;;11.50;99.90;;;12.56;100.00;101466.44;5073666;28;20550;-58
2021/11/09 10:33:27;;;;;;;12.50;7.13;;;11.50;99.90;;;12.92;100.00;101470.53;5073427;28;20192;-57
2021/11/09 10:35:57;;;;;;;10.97;6.73;;;11.70;99.90;;;13.55;99.10;101469.28;5072508;28;20536;-56
2021/11/09 10:38:31;;;;;;;16.43;7.57;;;12.00;99.90;;;13.74;95.97;101468.47;5072172;28;20205;-58
2021/11/09 10:41:00;;;;;;;10.93;7.53;;;12.30;99.90;;;13.53;96.88;101463.22;5073154;28;20585;-54
2021/11/09 10:43:30;;;;;;;12.47;7.57;;;12.30;99.90;;;13.44;97.72;101480.72;5073585;28;20255;-57
2021/11/09 10:46:00;;;;;;;12.80;6.38;;;12.30;99.90;;;13.27;100.00;101474.03;5073121;28;20674;-57
2021/11/09 10:48:28;;;;;;;11.53;7.00;;;12.20;99.90;;;13.12;97.25;101468.75;5073356;28;20208;-58
2021/11/09 10:51:00;;;;;;;12.83;6.53;;;12.10;99.90;;;12.96;98.76;101469.09;5073119;28;20227;-56
2021/11/09 10:53:33;;;;;;;11.47;6.63;;;11.90;99.90;;;12.78;100.00;101470.69;5073301;28;20203;-57
2021/11/09 10:56:12;;;;;;;10.70;6.60;;;11.90;99.90;;;12.63;100.00;101461.91;5080375;28;20233;-57
2021/11/09 10:59:03;;;;;;;43.30;10.63;;;11.70;99.90;;;12.78;100.00;101470.69;5092996;28;20282;-57
2021/11/09 11:04:16;;;;;;;49.23;10.43;;;11.50;99.90;;;12.57;100.00;101478.91;5092848;28;20184;-58
2021/11/09 11:06:47;;;;;;;14.67;7.73;;;11.40;99.90;;;12.42;100.00;101468.22;5093309;28;20298;-56
2021/11/09 11:09:22;;;;;;;12.93;8.20;;;11.40;99.90;;;12.54;100.00;101463.94;5093405;28;20275;-58
2021/11/09 11:12:05;;;;;;;17.23;8.27;;;11.50;99.90;;;13.20;100.00;101471.31;5091812;28;20184;-58
2021/11/09 11:14:34;;;;;;;11.77;7.80;;;11.70;99.90;;;13.53;99.35;101474.06;5092622;28;20639;-57
2021/11/09 11:17:09;;;;;;;9.20;7.60;;;12.10;99.90;;;13.99;97.54;101468.66;5092943;28;20618;-58
2021/11/09 11:19:40;;;;;;;13.80;7.80;;;12.40;99.90;;;14.28;94.94;101473.66;5092381;28;20638;-57
2021/11/09 11:22:11;;;;;;;13.27;7.45;;;12.60;99.90;;;14.30;94.84;101471.56;5092369;28;20288;-57
2021/11/09 11:24:40;;;;;;;11.20;6.80;;;12.80;99.90;;;14.63;94.41;101472.31;5092797;28;20207;-55
2021/11/09 11:27:12;;;;;;;11.07;7.20;;;13.10;99.90;;;14.79;91.08;101471.00;5072847;28;20196;-57
2021/11/09 11:29:43;;;;;;;12.48;6.47;;;13.20;99.90;;;14.21;94.30;101467.38;5072316;28;20185;-55
2021/11/09 11:32:15;;;;;;;11.98;7.00;;;12.90;99.90;;;13.84;97.09;101468.03;5072639;28;20181;-56
2021/11/09 11:34:44;;;;;;;14.98;7.43;;;12.70;99.90;;;13.41;100.00;101473.03;5072467;28;20243;-55
2021/11/09 11:37:16;;;;;;;9.10;7.10;;;12.40;99.90;;;13.04;100.00;101476.25;5072659;28;20197;-56
2021/11/09 11:39:47;;;;;;;10.70;6.73;;;12.20;99.90;;;12.83;100.00;101473.63;5072381;28;20728;-57
2021/11/09 11:42:17;;;;;;;11.30;6.55;;;12.00;99.90;;;12.67;100.00;101465.84;5072048;28;20236;-54
2021/11/09 11:44:56;;;;;;;9.70;6.30;;;11.80;99.90;;;12.87;100.00;101466.81;5072375;28;20227;-57
2021/11/09 11:47:25;;;;;;;10.87;6.57;;;11.80;99.90;;;12.88;100.00;101463.03;5072408;28;20238;-57
2021/11/09 11:49:57;;;;;;;12.03;6.57;;;11.80;99.90;;;12.96;100.00;101465.56;5072462;28;20204;-56
2021/11/09 11:52:31;;;;;;;10.13;6.47;;;11.90;99.90;;;13.73;100.00;101466.81;5071828;28;20211;-58
2021/11/09 11:55:08;;;;;;;9.02;5.65;;;12.20;99.90;;;14.73;96.59;101461.81;5072481;28;20279;-57
2021/11/09 11:57:48;;;;;;;11.93;6.68;;;12.70;99.90;;;15.42;90.13;101457.34;5072129;28;20220;-57